PWSweather.com
Personal Weather Stations
Station Observations
KMIEASTT1
Tawas Bay, East Tawas, MI 48730

Tawas BayEast Tawas, MI 48730

Lat: 44.28, Lon: -83.48

Elevation: 600

Station Type: Davis VantagePro

http://www.tawasbayweather.com

Latest ConditionsUpdated 1:00:13 PM EDT Monday, Sep 23, 2019
Currently Today's Max Today's Min Today's Average
Temperature 68.5°F20.3°C 68.5°F20.3°C 60.1°F15.6°C 63.1°F17.3°C
Dew Point 57.9°F14.4°C 66.1°F18.9°C 57.5°F14.2°C 60.9°F16.1°C
Winds 12.0 mph W19.3 kmh W 12.0 mph -19.3 kmh - - 2.1 mph 3.4 kmh
Wind Gusts 17.0 mph27.4 kmh 17.0 mph27.4 kmh - -
Humidity 69% 98% 69% 93%
Pressure 29.84 in1010.5 mb 29.85 in1010.8 mb 29.74 in1007.1 mb -
Hour Temp Dew Point Humidity Winds Wind Gusts Pressure Precip Precip Rate Daily Precip Total
01:00 PM 68.5°F20.3°C 57.9°F14.4°C 69% 12.0 mph W19.3 kmh W 17.0 mph27.4 kmh 29.84 in1010.5 mb 0.00 in0.0 mm 0.00 in0.0 mm 0.58 in14.7 mm
12:45 PM 68.0°F20.0°C 57.5°F14.2°C 69% 8.0 mph WNW12.9 kmh WNW 16.0 mph25.7 kmh 29.84 in1010.5 mb 0.00 in0.0 mm 0.00 in0.0 mm 0.58 in14.7 mm
12:30 PM 67.4°F19.7°C 58.5°F14.7°C 73% 7.0 mph W11.3 kmh W 15.0 mph24.1 kmh 29.84 in1010.5 mb 0.00 in0.0 mm 0.00 in0.0 mm 0.58 in14.7 mm
12:15 PM 66.6°F19.2°C 60.3°F15.7°C 80% 4.0 mph NW6.4 kmh NW 11.0 mph17.7 kmh 29.84 in1010.5 mb 0.00 in0.0 mm 0.00 in0.0 mm 0.58 in14.7 mm
12:00 PM 64.3°F17.9°C 58.4°F14.7°C 81% 9.0 mph NW14.5 kmh NW 11.0 mph17.7 kmh 29.84 in1010.5 mb 0.00 in0.0 mm 0.00 in0.0 mm 0.58 in14.7 mm
11:45 AM 65.5°F18.6°C 58.8°F14.9°C 79% 4.0 mph NW6.4 kmh NW 10.0 mph16.1 kmh 29.85 in1010.8 mb 0.00 in0.0 mm 0.00 in0.0 mm 0.58 in14.7 mm
11:30 AM 66.3°F19.1°C 61.0°F16.1°C 83% 3.0 mph WNW4.8 kmh WNW 9.0 mph14.5 kmh 29.85 in1010.8 mb 0.00 in0.0 mm 0.00 in0.0 mm 0.58 in14.7 mm
11:15 AM 66.7°F19.3°C 60.7°F15.9°C 81% 7.0 mph NW11.3 kmh NW 13.0 mph20.9 kmh 29.85 in1010.8 mb 0.00 in0.0 mm 0.00 in0.0 mm 0.58 in14.7 mm
11:00 AM 65.4°F18.6°C 61.8°F16.6°C 88% 1.0 mph W1.6 kmh W 6.0 mph9.7 kmh 29.85 in1010.8 mb 0.00 in0.0 mm 0.00 in0.0 mm 0.58 in14.7 mm
10:45 AM 65.4°F18.6°C 61.4°F16.3°C 87% 1.0 mph NW1.6 kmh NW 5.0 mph8.0 kmh 29.85 in1010.8 mb 0.00 in0.0 mm 0.00 in0.0 mm 0.58 in14.7 mm
10:30 AM 66.1°F18.9°C 61.1°F16.2°C 84% 3.0 mph NW4.8 kmh NW 11.0 mph17.7 kmh 29.85 in1010.8 mb 0.00 in0.0 mm 0.00 in0.0 mm 0.58 in14.7 mm
10:15 AM 65.4°F18.6°C 63.3°F17.4°C 93% 3.0 mph NW4.8 kmh NW 3.0 mph4.8 kmh 29.84 in1010.5 mb 0.00 in0.0 mm 0.00 in0.0 mm 0.58 in14.7 mm
10:00 AM 62.8°F17.1°C 61.1°F16.2°C 94% 1.0 mph N1.6 kmh N 2.0 mph3.2 kmh 29.84 in1010.5 mb 0.02 in0.5 mm 0.00 in0.0 mm 0.58 in14.7 mm
09:45 AM 62.3°F16.8°C 61.2°F16.2°C 96% Calm Calm 1.0 mph1.6 kmh 29.84 in1010.5 mb 0.02 in0.5 mm 0.00 in0.0 mm 0.58 in14.7 mm
09:30 AM 62.1°F16.7°C 60.4°F15.8°C 94% 1.0 mph NNE1.6 kmh NNE 2.0 mph3.2 kmh 29.84 in1010.5 mb 0.02 in0.5 mm 0.00 in0.0 mm 0.58 in14.7 mm
09:15 AM 62.3°F16.8°C 60.3°F15.7°C 93% Calm Calm 4.0 mph6.4 kmh 29.83 in1010.2 mb 0.02 in0.5 mm 0.08 in2.0 mm 0.58 in14.7 mm
09:00 AM 62.4°F16.9°C 61.0°F16.1°C 95% 2.0 mph W3.2 kmh W 6.0 mph9.7 kmh 29.83 in1010.2 mb 0.00 in0.0 mm 0.00 in0.0 mm 0.56 in14.2 mm
08:45 AM 61.6°F16.4°C 60.5°F15.8°C 96% 3.0 mph W4.8 kmh W 6.0 mph9.7 kmh 29.83 in1010.2 mb 0.00 in0.0 mm 0.00 in0.0 mm 0.56 in14.2 mm
08:30 AM 61.5°F16.4°C 60.4°F15.8°C 96% 3.0 mph NW4.8 kmh NW 3.0 mph4.8 kmh 29.82 in1009.8 mb 0.00 in0.0 mm 0.00 in0.0 mm 0.56 in14.2 mm
08:15 AM 61.2°F16.2°C 60.4°F15.8°C 97% Calm Calm 1.0 mph1.6 kmh 29.82 in1009.8 mb 0.00 in0.0 mm 0.00 in0.0 mm 0.56 in14.2 mm
08:00 AM 61.0°F16.1°C 59.9°F15.5°C 96% Calm Calm 2.0 mph3.2 kmh 29.81 in1009.5 mb 0.00 in0.0 mm 0.00 in0.0 mm 0.56 in14.2 mm
07:45 AM 61.0°F16.1°C 59.9°F15.5°C 96% Calm Calm 2.0 mph3.2 kmh 29.82 in1009.8 mb 0.00 in0.0 mm 0.00 in0.0 mm 0.56 in14.2 mm
07:30 AM 61.0°F16.1°C 59.9°F15.5°C 96% 1.0 mph WNW1.6 kmh WNW 2.0 mph3.2 kmh 29.82 in1009.8 mb 0.00 in0.0 mm 0.00 in0.0 mm 0.56 in14.2 mm
07:15 AM 61.2°F16.2°C 60.1°F15.6°C 96% Calm Calm 3.0 mph4.8 kmh 29.81 in1009.5 mb 0.00 in0.0 mm 0.00 in0.0 mm 0.56 in14.2 mm
07:00 AM 60.8°F16.0°C 59.7°F15.4°C 96% 2.0 mph WNW3.2 kmh WNW 3.0 mph4.8 kmh 29.81 in1009.5 mb 0.00 in0.0 mm 0.00 in0.0 mm 0.56 in14.2 mm
06:45 AM 60.5°F15.8°C 59.7°F15.4°C 97% Calm Calm -- 29.79 in1008.8 mb 0.00 in0.0 mm 0.00 in0.0 mm 0.56 in14.2 mm
06:30 AM 60.5°F15.8°C 59.7°F15.4°C 97% Calm Calm -- 29.79 in1008.8 mb 0.00 in0.0 mm 0.00 in0.0 mm 0.56 in14.2 mm
06:15 AM 60.5°F15.8°C 59.7°F15.4°C 97% Calm Calm 1.0 mph1.6 kmh 29.79 in1008.8 mb 0.00 in0.0 mm 0.00 in0.0 mm 0.56 in14.2 mm
06:00 AM 60.6°F15.9°C 59.8°F15.4°C 97% Calm Calm 2.0 mph3.2 kmh 29.79 in1008.8 mb 0.00 in0.0 mm 0.00 in0.0 mm 0.56 in14.2 mm
05:45 AM 60.7°F15.9°C 59.9°F15.5°C 97% Calm Calm 2.0 mph3.2 kmh 29.79 in1008.8 mb 0.00 in0.0 mm 0.00 in0.0 mm 0.56 in14.2 mm
05:30 AM 60.8°F16.0°C 60.0°F15.6°C 97% 1.0 mph NW1.6 kmh NW 4.0 mph6.4 kmh 29.78 in1008.5 mb 0.00 in0.0 mm 0.00 in0.0 mm 0.56 in14.2 mm
05:15 AM 60.8°F16.0°C 60.0°F15.6°C 97% 2.0 mph NW3.2 kmh NW 3.0 mph4.8 kmh 29.78 in1008.5 mb 0.00 in0.0 mm 0.00 in0.0 mm 0.56 in14.2 mm
05:00 AM 60.9°F16.1°C 60.3°F15.7°C 98% Calm Calm 4.0 mph6.4 kmh 29.78 in1008.5 mb 0.00 in0.0 mm 0.00 in0.0 mm 0.56 in14.2 mm
04:45 AM 60.7°F15.9°C 60.1°F15.6°C 98% 2.0 mph NNW3.2 kmh NNW 3.0 mph4.8 kmh 29.78 in1008.5 mb 0.00 in0.0 mm 0.00 in0.0 mm 0.56 in14.2 mm
04:30 AM 60.7°F15.9°C 60.1°F15.6°C 98% 2.0 mph NNW3.2 kmh NNW 2.0 mph3.2 kmh 29.78 in1008.5 mb 0.00 in0.0 mm 0.00 in0.0 mm 0.56 in14.2 mm
04:15 AM 60.8°F16.0°C 60.2°F15.7°C 98% 1.0 mph NNW1.6 kmh NNW 2.0 mph3.2 kmh 29.78 in1008.5 mb 0.00 in0.0 mm 0.00 in0.0 mm 0.56 in14.2 mm
04:00 AM 60.7°F15.9°C 60.1°F15.6°C 98% 1.0 mph NNW1.6 kmh NNW 3.0 mph4.8 kmh 29.78 in1008.5 mb 0.00 in0.0 mm 0.00 in0.0 mm 0.56 in14.2 mm
03:45 AM 60.5°F15.8°C 59.9°F15.5°C 98% Calm Calm 2.0 mph3.2 kmh 29.77 in1008.1 mb 0.00 in0.0 mm 0.00 in0.0 mm 0.56 in14.2 mm
03:30 AM 60.4°F15.8°C 59.6°F15.3°C 97% 1.0 mph NNW1.6 kmh NNW 2.0 mph3.2 kmh 29.77 in1008.1 mb 0.01 in0.3 mm 0.00 in0.0 mm 0.56 in14.2 mm
03:15 AM 60.2°F15.7°C 59.4°F15.2°C 97% 2.0 mph WSW3.2 kmh WSW 2.0 mph3.2 kmh 29.77 in1008.1 mb 0.01 in0.3 mm 0.00 in0.0 mm 0.56 in14.2 mm
03:00 AM 60.1°F15.6°C 59.0°F15.0°C 96% Calm Calm 1.0 mph1.6 kmh 29.75 in1007.5 mb 0.03 in0.8 mm 0.00 in0.0 mm 0.56 in14.2 mm
02:45 AM 60.3°F15.7°C 59.2°F15.1°C 96% 1.0 mph NNE1.6 kmh NNE 3.0 mph4.8 kmh 29.76 in1007.8 mb 0.03 in0.8 mm 0.00 in0.0 mm 0.56 in14.2 mm
02:30 AM 60.7°F15.9°C 59.3°F15.2°C 95% Calm Calm 4.0 mph6.4 kmh 29.75 in1007.5 mb 0.09 in2.3 mm 0.00 in0.0 mm 0.56 in14.2 mm
02:15 AM 62.7°F17.1°C 60.0°F15.6°C 91% 4.0 mph N6.4 kmh N 6.0 mph9.7 kmh 29.75 in1007.5 mb 0.09 in2.3 mm 0.00 in0.0 mm 0.56 in14.2 mm
02:00 AM 64.6°F18.1°C 63.7°F17.6°C 97% Calm Calm 1.0 mph1.6 kmh 29.74 in1007.1 mb 0.32 in8.1 mm 0.03 in0.8 mm 0.56 in14.2 mm
01:45 AM 64.8°F18.2°C 63.6°F17.6°C 96% Calm Calm 2.0 mph3.2 kmh 29.75 in1007.5 mb 0.30 in7.6 mm 0.00 in0.0 mm 0.54 in13.7 mm
01:30 AM 65.1°F18.4°C 63.9°F17.7°C 96% Calm Calm 3.0 mph4.8 kmh 29.75 in1007.5 mb 0.39 in9.9 mm 0.04 in1.0 mm 0.54 in13.7 mm
01:15 AM 66.0°F18.9°C 64.8°F18.2°C 96% 3.0 mph NNW4.8 kmh NNW 5.0 mph8.0 kmh 29.75 in1007.5 mb 0.38 in9.7 mm 0.00 in0.0 mm 0.53 in13.5 mm
01:00 AM 66.3°F19.1°C 65.4°F18.6°C 97% 1.0 mph NNW1.6 kmh NNW 3.0 mph4.8 kmh 29.75 in1007.5 mb 0.53 in13.5 mm 0.08 in2.0 mm 0.53 in13.5 mm
12:45 AM 66.7°F19.3°C 66.1°F18.9°C 98% 1.0 mph N1.6 kmh N 2.0 mph3.2 kmh 29.75 in1007.5 mb 0.47 in11.9 mm 0.12 in3.0 mm 0.47 in11.9 mm
12:30 AM 66.7°F19.3°C 66.1°F18.9°C 98% 6.0 mph SW9.7 kmh SW 7.0 mph11.3 kmh 29.75 in1007.5 mb 0.44 in11.2 mm 0.16 in4.1 mm 0.44 in11.2 mm
12:15 AM 66.6°F19.2°C 65.7°F18.7°C 97% 6.0 mph S9.7 kmh S 8.0 mph12.9 kmh 29.75 in1007.5 mb 0.40 in10.2 mm 0.20 in5.1 mm 0.40 in10.2 mm
12:00 AM 66.7°F19.3°C 65.8°F18.8°C 97% 4.0 mph SSW6.4 kmh SSW 8.0 mph12.9 kmh 29.76 in1007.8 mb 0.35 in8.9 mm 0.00 in0.0 mm 0.35 in8.9 mm